sensor_id;sensor_type;location;lat;lon;timestamp;P1;durP1;ratioP1;P2;durP2;ratioP2
53521;SDS011;39398;48.382;9.802;2022-10-16T00:00:21;7.40;;;3.38;;
53521;SDS011;39398;48.382;9.802;2022-10-16T00:01:23;8.48;;;2.58;;
53521;SDS011;39398;48.382;9.802;2022-10-16T00:02:27;5.03;;;2.50;;
53521;SDS011;39398;48.382;9.802;2022-10-16T00:03:29;2.90;;;2.20;;
53521;SDS011;39398;48.382;9.802;2022-10-16T00:04:30;3.17;;;2.58;;
53521;SDS011;39398;48.382;9.802;2022-10-16T00:05:32;3.35;;;2.40;;
53521;SDS011;39398;48.382;9.802;2022-10-16T00:06:34;2.90;;;2.50;;
53521;SDS011;39398;48.382;9.802;2022-10-16T00:07:36;6.53;;;2.53;;
53521;SDS011;39398;48.382;9.802;2022-10-16T00:08:37;5.47;;;2.30;;
53521;SDS011;39398;48.382;9.802;2022-10-16T00:09:39;4.60;;;2.15;;
53521;SDS011;39398;48.382;9.802;2022-10-16T00:10:41;4.15;;;2.50;;
53521;SDS011;39398;48.382;9.802;2022-10-16T00:11:42;4.45;;;2.60;;
53521;SDS011;39398;48.382;9.802;2022-10-16T00:12:44;4.10;;;2.50;;
53521;SDS011;39398;48.382;9.802;2022-10-16T00:13:46;3.70;;;2.10;;
53521;SDS011;39398;48.382;9.802;2022-10-16T00:14:49;4.45;;;2.33;;
53521;SDS011;39398;48.382;9.802;2022-10-16T00:15:50;4.32;;;2.40;;
53521;SDS011;39398;48.382;9.802;2022-10-16T00:16:52;4.38;;;2.28;;
53521;SDS011;39398;48.382;9.802;2022-10-16T00:17:54;5.18;;;2.15;;
53521;SDS011;39398;48.382;9.802;2022-10-16T00:18:56;5.18;;;2.70;;
53521;SDS011;39398;48.382;9.802;2022-10-16T00:19:58;4.40;;;2.42;;
53521;SDS011;39398;48.382;9.802;2022-10-16T00:21:03;2.70;;;2.40;;
53521;SDS011;39398;48.382;9.802;2022-10-16T00:22:06;3.85;;;2.40;;
53521;SDS011;39398;48.382;9.802;2022-10-16T00:23:07;3.55;;;2.35;;
53521;SDS011;39398;48.382;9.802;2022-10-16T00:24:09;2.90;;;2.45;;
53521;SDS011;39398;48.382;9.802;2022-10-16T00:25:11;3.00;;;2.08;;
53521;SDS011;39398;48.382;9.802;2022-10-16T00:26:16;7.80;;;2.72;;
53521;SDS011;39398;48.382;9.802;2022-10-16T00:27:18;4.75;;;2.40;;
53521;SDS011;39398;48.382;9.802;2022-10-16T00:28:20;6.95;;;2.97;;
53521;SDS011;39398;48.382;9.802;2022-10-16T00:29:21;3.53;;;2.40;;
53521;SDS011;39398;48.382;9.802;2022-10-16T00:30:23;6.55;;;2.45;;
53521;SDS011;39398;48.382;9.802;2022-10-16T00:31:24;3.58;;;2.63;;
53521;SDS011;39398;48.382;9.802;2022-10-16T00:32:26;4.38;;;2.10;;
53521;SDS011;39398;48.382;9.802;2022-10-16T00:33:30;4.60;;;2.30;;
53521;SDS011;39398;48.382;9.802;2022-10-16T00:34:31;4.43;;;2.50;;
53521;SDS011;39398;48.382;9.802;2022-10-16T00:35:33;4.18;;;2.28;;
53521;SDS011;39398;48.382;9.802;2022-10-16T00:36:34;3.70;;;2.28;;
53521;SDS011;39398;48.382;9.802;2022-10-16T00:37:36;2.53;;;2.33;;
53521;SDS011;39398;48.382;9.802;2022-10-16T00:38:37;7.25;;;2.60;;
53521;SDS011;39398;48.382;9.802;2022-10-16T00:39:39;7.78;;;2.47;;
53521;SDS011;39398;48.382;9.802;2022-10-16T00:40:40;5.40;;;2.63;;
53521;SDS011;39398;48.382;9.802;2022-10-16T00:41:42;5.55;;;2.40;;
53521;SDS011;39398;48.382;9.802;2022-10-16T00:42:43;3.50;;;2.38;;
53521;SDS011;39398;48.382;9.802;2022-10-16T00:43:45;5.72;;;2.42;;
53521;SDS011;39398;48.382;9.802;2022-10-16T00:44:49;4.57;;;2.58;;
53521;SDS011;39398;48.382;9.802;2022-10-16T00:45:52;5.85;;;3.33;;
53521;SDS011;39398;48.382;9.802;2022-10-16T00:46:54;6.78;;;2.72;;
53521;SDS011;39398;48.382;9.802;2022-10-16T00:47:55;4.20;;;2.78;;
53521;SDS011;39398;48.382;9.802;2022-10-16T00:49:01;5.15;;;2.60;;
53521;SDS011;39398;48.382;9.802;2022-10-16T00:50:06;6.70;;;2.55;;
53521;SDS011;39398;48.382;9.802;2022-10-16T00:51:10;4.38;;;2.50;;
53521;SDS011;39398;48.382;9.802;2022-10-16T00:52:12;3.55;;;2.60;;
53521;SDS011;39398;48.382;9.802;2022-10-16T00:53:15;5.18;;;2.70;;
53521;SDS011;39398;48.382;9.802;2022-10-16T00:54:19;5.05;;;2.60;;
53521;SDS011;39398;48.382;9.802;2022-10-16T00:55:22;4.93;;;2.70;;
53521;SDS011;39398;48.382;9.802;2022-10-16T00:56:24;3.78;;;2.53;;
53521;SDS011;39398;48.382;9.802;2022-10-16T00:57:26;3.35;;;2.80;;
53521;SDS011;39398;48.382;9.802;2022-10-16T00:58:28;6.10;;;2.80;;
53521;SDS011;39398;48.382;9.802;2022-10-16T00:59:30;5.43;;;2.97;;
53521;SDS011;39398;48.382;9.802;2022-10-16T01:00:34;4.47;;;3.13;;
53521;SDS011;39398;48.382;9.802;2022-10-16T01:01:35;5.78;;;2.80;;
53521;SDS011;39398;48.382;9.802;2022-10-16T01:02:37;6.93;;;2.90;;
53521;SDS011;39398;48.382;9.802;2022-10-16T01:03:38;4.25;;;2.58;;
53521;SDS011;39398;48.382;9.802;2022-10-16T01:04:42;6.43;;;2.90;;
53521;SDS011;39398;48.382;9.802;2022-10-16T01:05:46;10.15;;;2.72;;
53521;SDS011;39398;48.382;9.802;2022-10-16T01:06:54;8.23;;;2.80;;
53521;SDS011;39398;48.382;9.802;2022-10-16T01:08:04;3.92;;;2.70;;
53521;SDS011;39398;48.382;9.802;2022-10-16T01:09:14;4.68;;;2.50;;
53521;SDS011;39398;48.382;9.802;2022-10-16T01:10:23;4.38;;;2.25;;
53521;SDS011;39398;48.382;9.802;2022-10-16T01:11:31;5.43;;;2.53;;
53521;SDS011;39398;48.382;9.802;2022-10-16T01:12:38;4.20;;;2.47;;
53521;SDS011;39398;48.382;9.802;2022-10-16T01:13:48;5.72;;;2.58;;
53521;SDS011;39398;48.382;9.802;2022-10-16T01:14:55;4.20;;;2.55;;
53521;SDS011;39398;48.382;9.802;2022-10-16T01:16:00;7.72;;;2.40;;
53521;SDS011;39398;48.382;9.802;2022-10-16T01:17:07;6.03;;;2.55;;
53521;SDS011;39398;48.382;9.802;2022-10-16T01:18:14;5.78;;;2.60;;
53521;SDS011;39398;48.382;9.802;2022-10-16T01:19:20;5.63;;;2.60;;
53521;SDS011;39398;48.382;9.802;2022-10-16T01:20:33;3.45;;;2.60;;
53521;SDS011;39398;48.382;9.802;2022-10-16T01:21:39;4.88;;;3.00;;
53521;SDS011;39398;48.382;9.802;2022-10-16T01:22:47;7.40;;;2.83;;
53521;SDS011;39398;48.382;9.802;2022-10-16T01:23:59;6.93;;;2.38;;
53521;SDS011;39398;48.382;9.802;2022-10-16T01:25:09;4.85;;;2.72;;
53521;SDS011;39398;48.382;9.802;2022-10-16T01:26:22;3.17;;;2.60;;
53521;SDS011;39398;48.382;9.802;2022-10-16T01:27:38;4.43;;;2.58;;
53521;SDS011;39398;48.382;9.802;2022-10-16T01:28:42;4.03;;;2.70;;
53521;SDS011;39398;48.382;9.802;2022-10-16T01:29:49;4.05;;;2.65;;
53521;SDS011;39398;48.382;9.802;2022-10-16T01:30:56;6.47;;;3.20;;
53521;SDS011;39398;48.382;9.802;2022-10-16T01:32:00;4.85;;;3.10;;
53521;SDS011;39398;48.382;9.802;2022-10-16T01:33:08;9.02;;;3.40;;
53521;SDS011;39398;48.382;9.802;2022-10-16T01:34:16;6.82;;;3.50;;
53521;SDS011;39398;48.382;9.802;2022-10-16T01:35:23;6.65;;;3.25;;
53521;SDS011;39398;48.382;9.802;2022-10-16T01:36:31;4.35;;;3.10;;
53521;SDS011;39398;48.382;9.802;2022-10-16T01:37:39;5.90;;;3.70;;
53521;SDS011;39398;48.382;9.802;2022-10-16T01:38:46;3.78;;;3.33;;
53521;SDS011;39398;48.382;9.802;2022-10-16T01:39:50;5.13;;;3.03;;
53521;SDS011;39398;48.382;9.802;2022-10-16T01:40:56;5.63;;;3.30;;
53521;SDS011;39398;48.382;9.802;2022-10-16T01:42:03;5.20;;;3.00;;
53521;SDS011;39398;48.382;9.802;2022-10-16T01:43:11;3.53;;;3.00;;
53521;SDS011;39398;48.382;9.802;2022-10-16T01:44:17;6.65;;;2.90;;
53521;SDS011;39398;48.382;9.802;2022-10-16T01:45:23;4.40;;;3.28;;
53521;SDS011;39398;48.382;9.802;2022-10-16T01:46:24;4.95;;;3.20;;
53521;SDS011;39398;48.382;9.802;2022-10-16T01:47:27;8.55;;;3.25;;
53521;SDS011;39398;48.382;9.802;2022-10-16T01:48:32;3.42;;;3.00;;
53521;SDS011;39398;48.382;9.802;2022-10-16T01:49:35;5.43;;;3.00;;
53521;SDS011;39398;48.382;9.802;2022-10-16T01:50:40;5.10;;;2.85;;
53521;SDS011;39398;48.382;9.802;2022-10-16T01:51:44;3.97;;;2.78;;
53521;SDS011;39398;48.382;9.802;2022-10-16T01:52:51;5.40;;;2.67;;
53521;SDS011;39398;48.382;9.802;2022-10-16T01:53:56;3.50;;;2.65;;
53521;SDS011;39398;48.382;9.802;2022-10-16T01:55:02;4.45;;;2.65;;
53521;SDS011;39398;48.382;9.802;2022-10-16T01:56:08;4.28;;;2.55;;
53521;SDS011;39398;48.382;9.802;2022-10-16T01:57:13;5.60;;;2.38;;
53521;SDS011;39398;48.382;9.802;2022-10-16T01:58:18;3.63;;;2.42;;
53521;SDS011;39398;48.382;9.802;2022-10-16T01:59:20;4.80;;;2.35;;
53521;SDS011;39398;48.382;9.802;2022-10-16T02:00:25;5.95;;;2.42;;
53521;SDS011;39398;48.382;9.802;2022-10-16T02:01:28;7.68;;;2.47;;
53521;SDS011;39398;48.382;9.802;2022-10-16T02:02:32;3.38;;;2.55;;
53521;SDS011;39398;48.382;9.802;2022-10-16T02:03:35;3.00;;;2.50;;
53521;SDS011;39398;48.382;9.802;2022-10-16T02:04:42;4.20;;;2.20;;
53521;SDS011;39398;48.382;9.802;2022-10-16T02:05:47;5.60;;;2.60;;
53521;SDS011;39398;48.382;9.802;2022-10-16T02:06:52;3.80;;;2.45;;
53521;SDS011;39398;48.382;9.802;2022-10-16T02:07:54;4.20;;;2.20;;
53521;SDS011;39398;48.382;9.802;2022-10-16T02:08:56;4.28;;;2.35;;
53521;SDS011;39398;48.382;9.802;2022-10-16T02:09:57;2.95;;;2.08;;
53521;SDS011;39398;48.382;9.802;2022-10-16T02:11:01;4.20;;;2.20;;
53521;SDS011;39398;48.382;9.802;2022-10-16T02:12:06;3.72;;;2.28;;
53521;SDS011;39398;48.382;9.802;2022-10-16T02:13:14;5.55;;;2.47;;
53521;SDS011;39398;48.382;9.802;2022-10-16T02:14:21;6.47;;;2.25;;
53521;SDS011;39398;48.382;9.802;2022-10-16T02:15:22;2.55;;;1.90;;
53521;SDS011;39398;48.382;9.802;2022-10-16T02:16:32;4.30;;;2.35;;
53521;SDS011;39398;48.382;9.802;2022-10-16T02:17:34;4.10;;;2.00;;
53521;SDS011;39398;48.382;9.802;2022-10-16T02:18:36;2.40;;;1.90;;
53521;SDS011;39398;48.382;9.802;2022-10-16T02:19:38;6.57;;;2.30;;
53521;SDS011;39398;48.382;9.802;2022-10-16T02:20:41;2.90;;;2.00;;
53521;SDS011;39398;48.382;9.802;2022-10-16T02:21:54;3.90;;;2.20;;
53521;SDS011;39398;48.382;9.802;2022-10-16T02:22:57;8.90;;;2.80;;
53521;SDS011;39398;48.382;9.802;2022-10-16T02:24:00;4.50;;;2.22;;
53521;SDS011;39398;48.382;9.802;2022-10-16T02:25:08;3.63;;;2.35;;
53521;SDS011;39398;48.382;9.802;2022-10-16T02:26:12;6.63;;;3.00;;
53521;SDS011;39398;48.382;9.802;2022-10-16T02:27:17;4.90;;;2.38;;
53521;SDS011;39398;48.382;9.802;2022-10-16T02:28:26;4.53;;;2.47;;
53521;SDS011;39398;48.382;9.802;2022-10-16T02:29:37;3.15;;;2.45;;
53521;SDS011;39398;48.382;9.802;2022-10-16T02:30:42;3.17;;;2.30;;
53521;SDS011;39398;48.382;9.802;2022-10-16T02:31:48;7.32;;;2.22;;
53521;SDS011;39398;48.382;9.802;2022-10-16T02:32:54;5.63;;;2.42;;
53521;SDS011;39398;48.382;9.802;2022-10-16T02:33:57;4.38;;;2.33;;
53521;SDS011;39398;48.382;9.802;2022-10-16T02:35:01;4.18;;;2.28;;
53521;SDS011;39398;48.382;9.802;2022-10-16T02:36:04;3.10;;;2.28;;
53521;SDS011;39398;48.382;9.802;2022-10-16T02:37:06;4.85;;;2.40;;
53521;SDS011;39398;48.382;9.802;2022-10-16T02:38:08;4.25;;;2.40;;
53521;SDS011;39398;48.382;9.802;2022-10-16T02:39:16;5.20;;;2.55;;
53521;SDS011;39398;48.382;9.802;2022-10-16T02:40:19;2.58;;;2.20;;
53521;SDS011;39398;48.382;9.802;2022-10-16T02:41:25;4.00;;;2.38;;
53521;SDS011;39398;48.382;9.802;2022-10-16T02:42:27;2.33;;;2.10;;
53521;SDS011;39398;48.382;9.802;2022-10-16T02:43:29;4.72;;;2.22;;
53521;SDS011;39398;48.382;9.802;2022-10-16T02:44:31;5.50;;;2.20;;
53521;SDS011;39398;48.382;9.802;2022-10-16T02:45:34;3.00;;;2.00;;
53521;SDS011;39398;48.382;9.802;2022-10-16T02:46:35;3.40;;;2.20;;
53521;SDS011;39398;48.382;9.802;2022-10-16T02:47:37;4.28;;;2.00;;
53521;SDS011;39398;48.382;9.802;2022-10-16T02:48:38;5.50;;;2.10;;
53521;SDS011;39398;48.382;9.802;2022-10-16T02:49:40;4.78;;;2.10;;
53521;SDS011;39398;48.382;9.802;2022-10-16T02:50:41;3.97;;;2.05;;
53521;SDS011;39398;48.382;9.802;2022-10-16T02:51:43;3.75;;;1.80;;
53521;SDS011;39398;48.382;9.802;2022-10-16T02:52:44;3.95;;;2.10;;
53521;SDS011;39398;48.382;9.802;2022-10-16T02:53:45;3.22;;;2.35;;
53521;SDS011;39398;48.382;9.802;2022-10-16T02:54:47;2.58;;;2.33;;
53521;SDS011;39398;48.382;9.802;2022-10-16T02:55:48;2.80;;;2.25;;
53521;SDS011;39398;48.382;9.802;2022-10-16T02:56:50;2.88;;;2.05;;
53521;SDS011;39398;48.382;9.802;2022-10-16T02:57:51;5.78;;;2.58;;
53521;SDS011;39398;48.382;9.802;2022-10-16T02:58:53;5.93;;;2.05;;
53521;SDS011;39398;48.382;9.802;2022-10-16T02:59:54;4.55;;;1.88;;
53521;SDS011;39398;48.382;9.802;2022-10-16T03:00:57;3.30;;;2.20;;
53521;SDS011;39398;48.382;9.802;2022-10-16T03:01:59;4.65;;;2.30;;
53521;SDS011;39398;48.382;9.802;2022-10-16T03:03:00;3.22;;;1.80;;
53521;SDS011;39398;48.382;9.802;2022-10-16T03:04:02;3.72;;;2.20;;
53521;SDS011;39398;48.382;9.802;2022-10-16T03:05:04;4.03;;;2.15;;
53521;SDS011;39398;48.382;9.802;2022-10-16T03:06:06;2.95;;;1.90;;
53521;SDS011;39398;48.382;9.802;2022-10-16T03:07:07;3.83;;;2.00;;
53521;SDS011;39398;48.382;9.802;2022-10-16T03:08:09;6.78;;;2.10;;
53521;SDS011;39398;48.382;9.802;2022-10-16T03:09:10;3.28;;;2.15;;
53521;SDS011;39398;48.382;9.802;2022-10-16T03:10:11;5.00;;;2.33;;
53521;SDS011;39398;48.382;9.802;2022-10-16T03:11:13;3.15;;;2.20;;
53521;SDS011;39398;48.382;9.802;2022-10-16T03:12:14;3.47;;;1.80;;
53521;SDS011;39398;48.382;9.802;2022-10-16T03:13:16;3.28;;;2.00;;
53521;SDS011;39398;48.382;9.802;2022-10-16T03:14:18;9.07;;;2.55;;
53521;SDS011;39398;48.382;9.802;2022-10-16T03:15:19;3.25;;;2.20;;
53521;SDS011;39398;48.382;9.802;2022-10-16T03:16:22;3.10;;;1.92;;
53521;SDS011;39398;48.382;9.802;2022-10-16T03:17:23;3.22;;;1.92;;
53521;SDS011;39398;48.382;9.802;2022-10-16T03:18:25;3.35;;;1.92;;
53521;SDS011;39398;48.382;9.802;2022-10-16T03:19:27;2.92;;;2.10;;
53521;SDS011;39398;48.382;9.802;2022-10-16T03:20:28;4.78;;;2.10;;
53521;SDS011;39398;48.382;9.802;2022-10-16T03:21:30;5.40;;;2.22;;
53521;SDS011;39398;48.382;9.802;2022-10-16T03:22:31;5.10;;;2.38;;
53521;SDS011;39398;48.382;9.802;2022-10-16T03:23:33;3.28;;;2.35;;
53521;SDS011;39398;48.382;9.802;2022-10-16T03:24:34;3.47;;;2.50;;
53521;SDS011;39398;48.382;9.802;2022-10-16T03:25:36;3.38;;;2.20;;
53521;SDS011;39398;48.382;9.802;2022-10-16T03:26:37;2.42;;;2.22;;
53521;SDS011;39398;48.382;9.802;2022-10-16T03:27:38;3.42;;;2.75;;
53521;SDS011;39398;48.382;9.802;2022-10-16T03:28:40;3.72;;;2.83;;
53521;SDS011;39398;48.382;9.802;2022-10-16T03:29:41;3.90;;;2.50;;
53521;SDS011;39398;48.382;9.802;2022-10-16T03:30:43;3.60;;;2.47;;
53521;SDS011;39398;48.382;9.802;2022-10-16T03:31:46;5.40;;;2.63;;
53521;SDS011;39398;48.382;9.802;2022-10-16T03:32:47;3.30;;;2.50;;
53521;SDS011;39398;48.382;9.802;2022-10-16T03:33:49;4.38;;;2.90;;
53521;SDS011;39398;48.382;9.802;2022-10-16T03:34:50;4.70;;;2.35;;
53521;SDS011;39398;48.382;9.802;2022-10-16T03:35:52;3.00;;;2.70;;
53521;SDS011;39398;48.382;9.802;2022-10-16T03:36:54;4.45;;;2.70;;
53521;SDS011;39398;48.382;9.802;2022-10-16T03:37:55;5.90;;;2.67;;
53521;SDS011;39398;48.382;9.802;2022-10-16T03:38:57;3.67;;;2.30;;
53521;SDS011;39398;48.382;9.802;2022-10-16T03:39:58;4.22;;;2.55;;
53521;SDS011;39398;48.382;9.802;2022-10-16T03:41:00;4.85;;;2.55;;
53521;SDS011;39398;48.382;9.802;2022-10-16T03:42:02;6.22;;;2.50;;
53521;SDS011;39398;48.382;9.802;2022-10-16T03:43:03;10.10;;;2.72;;
53521;SDS011;39398;48.382;9.802;2022-10-16T03:44:05;4.57;;;2.10;;
53521;SDS011;39398;48.382;9.802;2022-10-16T03:45:06;6.03;;;2.58;;
53521;SDS011;39398;48.382;9.802;2022-10-16T03:46:08;2.72;;;2.00;;
53521;SDS011;39398;48.382;9.802;2022-10-16T03:47:11;4.07;;;2.10;;
53521;SDS011;39398;48.382;9.802;2022-10-16T03:48:13;2.83;;;2.40;;
53521;SDS011;39398;48.382;9.802;2022-10-16T03:49:14;4.65;;;2.33;;
53521;SDS011;39398;48.382;9.802;2022-10-16T03:50:15;3.35;;;2.00;;
53521;SDS011;39398;48.382;9.802;2022-10-16T03:51:17;4.60;;;2.13;;
53521;SDS011;39398;48.382;9.802;2022-10-16T03:52:18;2.83;;;2.30;;
53521;SDS011;39398;48.382;9.802;2022-10-16T03:53:20;5.22;;;2.40;;
53521;SDS011;39398;48.382;9.802;2022-10-16T03:54:21;2.75;;;2.10;;
53521;SDS011;39398;48.382;9.802;2022-10-16T03:55:23;4.15;;;2.20;;
53521;SDS011;39398;48.382;9.802;2022-10-16T03:56:24;4.72;;;2.20;;
53521;SDS011;39398;48.382;9.802;2022-10-16T03:57:27;3.70;;;2.15;;
53521;SDS011;39398;48.382;9.802;2022-10-16T03:58:29;3.53;;;2.42;;
53521;SDS011;39398;48.382;9.802;2022-10-16T03:59:30;3.47;;;2.60;;
53521;SDS011;39398;48.382;9.802;2022-10-16T04:00:32;5.70;;;2.42;;
53521;SDS011;39398;48.382;9.802;2022-10-16T04:01:33;3.08;;;2.55;;
53521;SDS011;39398;48.382;9.802;2022-10-16T04:02:36;5.97;;;2.65;;
53521;SDS011;39398;48.382;9.802;2022-10-16T04:03:38;4.15;;;2.40;;
53521;SDS011;39398;48.382;9.802;2022-10-16T04:04:39;4.38;;;2.95;;
53521;SDS011;39398;48.382;9.802;2022-10-16T04:05:40;3.05;;;2.33;;
53521;SDS011;39398;48.382;9.802;2022-10-16T04:06:42;5.15;;;2.60;;
53521;SDS011;39398;48.382;9.802;2022-10-16T04:07:43;5.10;;;2.35;;
53521;SDS011;39398;48.382;9.802;2022-10-16T04:08:45;3.25;;;2.47;;
53521;SDS011;39398;48.382;9.802;2022-10-16T04:09:46;3.38;;;2.70;;
53521;SDS011;39398;48.382;9.802;2022-10-16T04:10:48;3.83;;;2.45;;
53521;SDS011;39398;48.382;9.802;2022-10-16T04:11:49;3.38;;;2.17;;
53521;SDS011;39398;48.382;9.802;2022-10-16T04:12:51;7.55;;;2.42;;
53521;SDS011;39398;48.382;9.802;2022-10-16T04:13:52;4.28;;;2.67;;
53521;SDS011;39398;48.382;9.802;2022-10-16T04:14:54;7.43;;;2.70;;
53521;SDS011;39398;48.382;9.802;2022-10-16T04:15:55;6.68;;;2.95;;
53521;SDS011;39398;48.382;9.802;2022-10-16T04:16:56;5.72;;;2.75;;
53521;SDS011;39398;48.382;9.802;2022-10-16T04:17:59;7.35;;;2.60;;
53521;SDS011;39398;48.382;9.802;2022-10-16T04:19:01;5.18;;;2.50;;
53521;SDS011;39398;48.382;9.802;2022-10-16T04:20:03;5.50;;;2.80;;
53521;SDS011;39398;48.382;9.802;2022-10-16T04:21:06;7.00;;;2.95;;
53521;SDS011;39398;48.382;9.802;2022-10-16T04:22:07;4.80;;;2.70;;
53521;SDS011;39398;48.382;9.802;2022-10-16T04:23:09;5.05;;;3.13;;
53521;SDS011;39398;48.382;9.802;2022-10-16T04:24:11;6.25;;;3.05;;
53521;SDS011;39398;48.382;9.802;2022-10-16T04:25:12;5.38;;;2.35;;
53521;SDS011;39398;48.382;9.802;2022-10-16T04:26:14;4.57;;;2.70;;
53521;SDS011;39398;48.382;9.802;2022-10-16T04:27:15;6.80;;;2.78;;
53521;SDS011;39398;48.382;9.802;2022-10-16T04:28:16;4.00;;;2.60;;
53521;SDS011;39398;48.382;9.802;2022-10-16T04:29:18;5.25;;;2.55;;
53521;SDS011;39398;48.382;9.802;2022-10-16T04:30:20;5.35;;;2.40;;
53521;SDS011;39398;48.382;9.802;2022-10-16T04:31:21;6.50;;;2.92;;
53521;SDS011;39398;48.382;9.802;2022-10-16T04:32:23;3.70;;;2.38;;
53521;SDS011;39398;48.382;9.802;2022-10-16T04:33:26;8.25;;;2.50;;
53521;SDS011;39398;48.382;9.802;2022-10-16T04:34:27;9.98;;;2.97;;
53521;SDS011;39398;48.382;9.802;2022-10-16T04:35:29;4.20;;;2.60;;
53521;SDS011;39398;48.382;9.802;2022-10-16T04:36:30;3.00;;;2.63;;
53521;SDS011;39398;48.382;9.802;2022-10-16T04:37:32;3.25;;;2.60;;
53521;SDS011;39398;48.382;9.802;2022-10-16T04:38:33;4.63;;;2.50;;
53521;SDS011;39398;48.382;9.802;2022-10-16T04:39:35;3.55;;;2.60;;
53521;SDS011;39398;48.382;9.802;2022-10-16T04:40:36;6.97;;;2.85;;
53521;SDS011;39398;48.382;9.802;2022-10-16T04:41:38;4.03;;;2.40;;
53521;SDS011;39398;48.382;9.802;2022-10-16T04:42:39;5.20;;;2.38;;
53521;SDS011;39398;48.382;9.802;2022-10-16T04:43:41;2.85;;;2.50;;
53521;SDS011;39398;48.382;9.802;2022-10-16T04:44:42;4.95;;;2.78;;
53521;SDS011;39398;48.382;9.802;2022-10-16T04:45:44;5.45;;;2.80;;
53521;SDS011;39398;48.382;9.802;2022-10-16T04:46:45;3.15;;;2.60;;
53521;SDS011;39398;48.382;9.802;2022-10-16T04:47:47;4.90;;;2.90;;
53521;SDS011;39398;48.382;9.802;2022-10-16T04:48:49;3.55;;;2.47;;
53521;SDS011;39398;48.382;9.802;2022-10-16T04:49:51;3.33;;;2.15;;
53521;SDS011;39398;48.382;9.802;2022-10-16T04:50:52;6.25;;;2.90;;
53521;SDS011;39398;48.382;9.802;2022-10-16T04:51:55;4.72;;;2.67;;
53521;SDS011;39398;48.382;9.802;2022-10-16T04:52:56;4.85;;;3.05;;
53521;SDS011;39398;48.382;9.802;2022-10-16T04:53:58;5.28;;;2.95;;
53521;SDS011;39398;48.382;9.802;2022-10-16T04:54:59;7.65;;;3.22;;
53521;SDS011;39398;48.382;9.802;2022-10-16T04:56:01;6.43;;;2.80;;
53521;SDS011;39398;48.382;9.802;2022-10-16T04:57:03;5.15;;;2.90;;
53521;SDS011;39398;48.382;9.802;2022-10-16T04:58:04;8.35;;;3.20;;
53521;SDS011;39398;48.382;9.802;2022-10-16T04:59:06;4.55;;;3.10;;
53521;SDS011;39398;48.382;9.802;2022-10-16T05:00:08;8.40;;;3.10;;
53521;SDS011;39398;48.382;9.802;2022-10-16T05:01:10;3.97;;;2.92;;
53521;SDS011;39398;48.382;9.802;2022-10-16T05:02:11;3.83;;;3.00;;
53521;SDS011;39398;48.382;9.802;2022-10-16T05:03:13;5.82;;;2.80;;
53521;SDS011;39398;48.382;9.802;2022-10-16T05:04:16;6.68;;;2.92;;
53521;SDS011;39398;48.382;9.802;2022-10-16T05:05:17;7.05;;;2.90;;
53521;SDS011;39398;48.382;9.802;2022-10-16T05:06:19;3.63;;;2.80;;
53521;SDS011;39398;48.382;9.802;2022-10-16T05:07:21;6.80;;;3.20;;
53521;SDS011;39398;48.382;9.802;2022-10-16T05:08:22;3.92;;;2.92;;
53521;SDS011;39398;48.382;9.802;2022-10-16T05:09:24;7.65;;;2.92;;
53521;SDS011;39398;48.382;9.802;2022-10-16T05:10:25;6.05;;;3.00;;
53521;SDS011;39398;48.382;9.802;2022-10-16T05:11:27;5.45;;;2.97;;
53521;SDS011;39398;48.382;9.802;2022-10-16T05:12:28;6.65;;;2.83;;
53521;SDS011;39398;48.382;9.802;2022-10-16T05:13:30;7.47;;;3.20;;
53521;SDS011;39398;48.382;9.802;2022-10-16T05:14:31;5.60;;;3.13;;
53521;SDS011;39398;48.382;9.802;2022-10-16T05:15:33;3.60;;;2.80;;
53521;SDS011;39398;48.382;9.802;2022-10-16T05:16:34;6.32;;;2.97;;
53521;SDS011;39398;48.382;9.802;2022-10-16T05:17:36;7.28;;;3.03;;
53521;SDS011;39398;48.382;9.802;2022-10-16T05:18:44;3.90;;;2.65;;
53521;SDS011;39398;48.382;9.802;2022-10-16T05:19:46;6.22;;;2.88;;
53521;SDS011;39398;48.382;9.802;2022-10-16T05:20:48;5.97;;;2.80;;
53521;SDS011;39398;48.382;9.802;2022-10-16T05:21:49;7.38;;;2.70;;
53521;SDS011;39398;48.382;9.802;2022-10-16T05:22:51;5.38;;;2.70;;
53521;SDS011;39398;48.382;9.802;2022-10-16T05:23:52;3.55;;;2.80;;
53521;SDS011;39398;48.382;9.802;2022-10-16T05:24:54;3.13;;;2.78;;
53521;SDS011;39398;48.382;9.802;2022-10-16T05:25:56;5.40;;;3.10;;
53521;SDS011;39398;48.382;9.802;2022-10-16T05:26:58;3.42;;;2.97;;
53521;SDS011;39398;48.382;9.802;2022-10-16T05:27:59;3.78;;;2.63;;
53521;SDS011;39398;48.382;9.802;2022-10-16T05:29:01;2.60;;;2.40;;
53521;SDS011;39398;48.382;9.802;2022-10-16T05:30:03;5.15;;;2.60;;
53521;SDS011;39398;48.382;9.802;2022-10-16T05:31:10;6.38;;;2.47;;
53521;SDS011;39398;48.382;9.802;2022-10-16T05:32:11;4.25;;;2.53;;
53521;SDS011;39398;48.382;9.802;2022-10-16T05:33:13;4.50;;;2.75;;
53521;SDS011;39398;48.382;9.802;2022-10-16T05:34:14;5.20;;;2.72;;
53521;SDS011;39398;48.382;9.802;2022-10-16T05:35:17;5.70;;;3.08;;
53521;SDS011;39398;48.382;9.802;2022-10-16T05:36:19;5.13;;;2.50;;
53521;SDS011;39398;48.382;9.802;2022-10-16T05:37:21;2.75;;;2.55;;
53521;SDS011;39398;48.382;9.802;2022-10-16T05:38:22;3.35;;;2.55;;
53521;SDS011;39398;48.382;9.802;2022-10-16T05:39:24;3.00;;;2.70;;
53521;SDS011;39398;48.382;9.802;2022-10-16T05:40:25;2.92;;;2.30;;
53521;SDS011;39398;48.382;9.802;2022-10-16T05:41:27;4.07;;;2.40;;
53521;SDS011;39398;48.382;9.802;2022-10-16T05:42:28;3.20;;;2.00;;
53521;SDS011;39398;48.382;9.802;2022-10-16T05:43:29;3.63;;;2.00;;
53521;SDS011;39398;48.382;9.802;2022-10-16T05:44:32;4.65;;;2.20;;
53521;SDS011;39398;48.382;9.802;2022-10-16T05:45:39;3.17;;;2.00;;
53521;SDS011;39398;48.382;9.802;2022-10-16T05:46:40;4.75;;;1.92;;
53521;SDS011;39398;48.382;9.802;2022-10-16T05:47:41;3.25;;;2.35;;
53521;SDS011;39398;48.382;9.802;2022-10-16T05:48:43;5.50;;;2.10;;
53521;SDS011;39398;48.382;9.802;2022-10-16T05:49:45;3.97;;;2.17;;
53521;SDS011;39398;48.382;9.802;2022-10-16T05:50:47;2.58;;;2.10;;
53521;SDS011;39398;48.382;9.802;2022-10-16T05:51:49;6.78;;;2.10;;
53521;SDS011;39398;48.382;9.802;2022-10-16T05:52:50;4.97;;;1.92;;
53521;SDS011;39398;48.382;9.802;2022-10-16T05:53:52;4.00;;;2.10;;
53521;SDS011;39398;48.382;9.802;2022-10-16T05:54:53;3.85;;;2.00;;
53521;SDS011;39398;48.382;9.802;2022-10-16T05:55:55;2.55;;;2.00;;
53521;SDS011;39398;48.382;9.802;2022-10-16T05:56:57;4.68;;;1.98;;
53521;SDS011;39398;48.382;9.802;2022-10-16T05:57:58;5.00;;;2.35;;
53521;SDS011;39398;48.382;9.802;2022-10-16T05:59:00;3.67;;;2.10;;
53521;SDS011;39398;48.382;9.802;2022-10-16T06:00:02;2.90;;;2.55;;
53521;SDS011;39398;48.382;9.802;2022-10-16T06:01:05;5.97;;;2.28;;
53521;SDS011;39398;48.382;9.802;2022-10-16T06:02:08;3.70;;;2.05;;
53521;SDS011;39398;48.382;9.802;2022-10-16T06:03:13;3.97;;;1.98;;
53521;SDS011;39398;48.382;9.802;2022-10-16T06:04:14;7.53;;;2.25;;
53521;SDS011;39398;48.382;9.802;2022-10-16T06:05:16;6.10;;;2.20;;
53521;SDS011;39398;48.382;9.802;2022-10-16T06:06:19;3.47;;;2.28;;
53521;SDS011;39398;48.382;9.802;2022-10-16T06:07:22;3.92;;;2.35;;
53521;SDS011;39398;48.382;9.802;2022-10-16T06:08:24;3.30;;;2.42;;
53521;SDS011;39398;48.382;9.802;2022-10-16T06:09:26;6.80;;;2.88;;
53521;SDS011;39398;48.382;9.802;2022-10-16T06:10:27;5.72;;;2.70;;
53521;SDS011;39398;48.382;9.802;2022-10-16T06:11:29;3.33;;;2.20;;
53521;SDS011;39398;48.382;9.802;2022-10-16T06:12:32;2.88;;;2.20;;
53521;SDS011;39398;48.382;9.802;2022-10-16T06:13:33;4.32;;;2.50;;
53521;SDS011;39398;48.382;9.802;2022-10-16T06:14:35;5.20;;;2.22;;
53521;SDS011;39398;48.382;9.802;2022-10-16T06:15:37;6.45;;;2.83;;
53521;SDS011;39398;48.382;9.802;2022-10-16T06:16:38;3.22;;;2.40;;
53521;SDS011;39398;48.382;9.802;2022-10-16T06:17:40;8.00;;;2.30;;
53521;SDS011;39398;48.382;9.802;2022-10-16T06:18:41;3.47;;;2.30;;